Time;durP1;ratioP1;P1;durP2;ratioP2;P2;SDS_P1;SDS_P2;PMS_P1;PMS_P2;Temp;Humidity;BMP_temperature;BMP_pressure;BME280_temperature;BME280_humidity;BME280_pressure;Samples;Min_cycle;Max_cycle;Signal;HPM_P1;HPM_P2
2021/11/17 02:26:39;;;;;;;7.72;5.93;;;21.40;36.40;;;;;;5001563;28;20107;-53
2021/11/17 02:29:17;;;;;;;6.53;5.47;;;21.40;36.40;;;;;;5020663;28;20091;-55
2021/11/17 02:32:07;;;;;;;9.32;6.45;;;21.40;36.40;;;;;;5024284;28;20375;-53
2021/11/17 02:35:04;;;;;;;7.63;6.00;;;21.40;36.40;;;;;;5025019;28;20116;-53
2021/11/17 02:37:44;;;;;;;7.25;5.93;;;21.40;36.40;;;;;;5021601;28;20052;-56
2021/11/17 02:40:36;;;;;;;7.80;5.95;;;21.40;36.40;;;;;;5021358;28;20022;-54
2021/11/17 02:43:17;;;;;;;6.63;5.55;;;21.40;36.40;;;;;;5019258;28;20045;-52
2021/11/17 02:45:58;;;;;;;6.93;5.28;;;21.40;37.10;;;;;;5017816;28;20072;-53
2021/11/17 02:48:46;;;;;;;7.35;5.80;;;21.40;36.40;;;;;;5021202;28;20034;-53
2021/11/17 02:51:12;;;;;;;7.47;5.78;;;21.40;36.40;;;;;;5021285;28;20041;-53
2021/11/17 02:53:43;;;;;;;7.38;6.10;;;21.30;36.40;;;;;;5020238;28;20412;-54
2021/11/17 02:56:35;;;;;;;8.07;6.28;;;21.40;36.40;;;;;;5024146;28;20080;-53
2021/11/17 02:59:22;;;;;;;6.55;5.38;;;21.40;36.40;;;;;;5005652;28;20047;-57
2021/11/17 03:02:04;;;;;;;6.68;5.43;;;21.30;36.40;;;;;;5024376;28;20117;-56
2021/11/17 03:04:48;;;;;;;6.32;5.28;;;21.40;36.40;;;;;;5019084;28;20481;-55
2021/11/17 03:07:23;;;;;;;6.45;5.22;;;21.30;36.40;;;;;;5023588;28;20457;-56
2021/11/17 03:10:14;;;;;;;6.97;5.55;;;21.30;36.40;;;;;;5018996;28;20030;-56
2021/11/17 03:13:02;;;;;;;7.20;5.65;;;21.30;36.40;;;;;;5021589;28;20053;-55
2021/11/17 03:16:05;;;;;;;7.78;6.07;;;21.30;36.40;;;;;;5021180;28;20029;-55
2021/11/17 03:18:49;;;;;;;7.00;5.60;;;21.30;36.40;;;;;;5021430;28;20072;-53
2021/11/17 03:21:40;;;;;;;6.97;5.32;;;21.30;36.50;;;;;;5026731;28;20319;-57
2021/11/17 03:24:21;;;;;;;6.38;5.00;;;21.30;37.10;;;;;;5024966;28;20033;-54
2021/11/17 03:27:17;;;;;;;7.25;5.72;;;21.30;36.50;;;;;;5026889;28;20025;-52
2021/11/17 03:29:54;;;;;;;6.85;5.30;;;21.30;36.40;;;;;;5026078;28;20029;-52
2021/11/17 03:32:55;;;;;;;7.80;5.38;;;21.30;36.50;;;;;;5022659;28;20363;-58
2021/11/17 03:35:56;;;;;;;6.88;5.30;;;21.30;36.40;;;;;;5022298;28;20038;-56
2021/11/17 03:38:36;;;;;;;6.53;5.07;;;21.30;36.50;;;;;;5017412;28;20030;-55
2021/11/17 03:41:25;;;;;;;6.40;5.20;;;21.30;36.50;;;;;;5022431;28;20030;-56
2021/11/17 03:43:58;;;;;;;6.50;5.32;;;21.20;36.40;;;;;;5020914;28;20037;-59
2021/11/17 03:46:32;;;;;;;5.97;4.70;;;21.20;36.40;;;;;;5027822;28;20041;-56
2021/11/17 03:49:25;;;;;;;6.22;4.80;;;21.20;36.40;;;;;;5017848;28;20025;-57
2021/11/17 03:52:13;;;;;;;7.25;4.88;;;21.20;36.40;;;;;;5023872;28;20441;-54
2021/11/17 03:55:23;;;;;;;7.32;5.50;;;21.20;36.40;;;;;;5021882;28;20033;-53
2021/11/17 03:58:01;;;;;;;7.03;5.45;;;21.20;36.40;;;;;;5020861;28;20371;-54
2021/11/17 04:01:04;;;;;;;6.40;5.07;;;21.20;36.50;;;;;;5016582;28;20042;-54
2021/11/17 04:03:37;;;;;;;6.05;5.13;;;21.20;36.40;;;;;;5026597;28;20067;-54
2021/11/17 04:06:25;;;;;;;7.13;5.15;;;21.20;36.50;;;;;;5024938;28;20433;-53
2021/11/17 04:08:57;;;;;;;6.85;5.18;;;21.20;36.50;;;;;;5021092;28;20091;-53
2021/11/17 04:11:41;;;;;;;6.15;4.75;;;21.20;36.60;;;;;;5024174;28;20026;-52
2021/11/17 04:14:16;;;;;;;6.65;4.85;;;21.20;36.50;;;;;;5025218;28;20040;-53
2021/11/17 04:17:18;;;;;;;7.00;5.10;;;21.20;36.60;;;;;;5028636;28;20112;-51
2021/11/17 04:20:12;;;;;;;6.18;5.03;;;21.20;36.50;;;;;;5024700;28;20022;-52
2021/11/17 04:23:03;;;;;;;6.80;5.25;;;21.20;36.50;;;;;;5024394;28;20025;-52
2021/11/17 04:26:15;;;;;;;7.75;5.95;;;21.20;36.60;;;;;;5025526;28;20080;-55
2021/11/17 04:29:03;;;;;;;7.18;5.15;;;21.20;36.50;;;;;;5026939;28;20044;-54
2021/11/17 04:31:39;;;;;;;6.15;4.95;;;21.20;36.50;;;;;;5025903;28;20100;-53
2021/11/17 04:34:49;;;;;;;7.32;5.68;;;21.20;36.60;;;;;;5021959;28;20391;-58
2021/11/17 04:37:34;;;;;;;6.90;4.93;;;21.20;36.60;;;;;;5023205;28;20033;-56
2021/11/17 04:40:22;;;;;;;7.03;5.55;;;21.20;36.60;;;;;;5025207;28;20077;-55
2021/11/17 04:43:15;;;;;;;6.07;4.75;;;21.20;36.60;;;;;;5024817;28;20037;-55
2021/11/17 04:45:50;;;;;;;6.53;4.97;;;21.20;36.60;;;;;;5028011;28;20034;-54
2021/11/17 04:48:40;;;;;;;6.00;4.82;;;21.10;36.60;;;;;;5022607;28;20059;-58
2021/11/17 04:51:25;;;;;;;6.10;5.18;;;21.20;36.60;;;;;;5025278;28;20021;-54
2021/11/17 04:54:22;;;;;;;6.00;4.78;;;21.20;36.70;;;;;;5022062;28;20040;-56
2021/11/17 04:57:26;;;;;;;6.43;5.03;;;21.20;36.70;;;;;;5019893;28;20425;-52
2021/11/17 05:00:24;;;;;;;6.13;4.63;;;21.10;36.70;;;;;;5025000;28;20054;-58
2021/11/17 05:03:11;;;;;;;5.82;4.70;;;21.10;36.70;;;;;;5027178;28;20036;-51
2021/11/17 05:06:02;;;;;;;6.68;5.05;;;21.10;36.70;;;;;;5027338;28;20033;-58
2021/11/17 05:08:40;;;;;;;6.55;4.93;;;21.10;36.70;;;;;;5025908;28;20026;-54
2021/11/17 05:11:52;;;;;;;6.22;5.03;;;21.10;36.70;;;;;;5023427;28;20345;-53
2021/11/17 05:14:33;;;;;;;6.95;5.25;;;21.10;36.70;;;;;;5012455;28;20100;-60
2021/11/17 05:17:23;;;;;;;5.82;4.35;;;21.10;36.70;;;;;;5021226;28;20061;-57
2021/11/17 05:20:27;;;;;;;7.43;5.65;;;21.10;36.70;;;;;;5025863;28;20029;-52
2021/11/17 05:23:34;;;;;;;7.00;5.20;;;21.10;36.70;;;;;;5025821;28;20033;-54
2021/11/17 05:26:12;;;;;;;6.32;4.63;;;21.10;36.80;;;;;;5023467;28;20120;-54
2021/11/17 05:28:51;;;;;;;6.20;4.80;;;21.10;36.80;;;;;;5025620;28;20028;-54
2021/11/17 05:31:38;;;;;;;6.65;5.07;;;21.10;36.80;;;;;;5019762;28;20113;-55
2021/11/17 05:34:13;;;;;;;5.72;4.60;;;21.10;36.70;;;;;;5024266;28;20040;-55
2021/11/17 05:37:11;;;;;;;7.30;5.10;;;21.10;36.80;;;;;;5022816;28;20515;-54
2021/11/17 05:39:58;;;;;;;7.45;5.32;;;21.10;36.80;;;;;;5023004;28;20034;-54
2021/11/17 05:42:40;;;;;;;6.18;4.55;;;21.10;36.80;;;;;;5020690;28;20029;-58
2021/11/17 05:45:34;;;;;;;6.55;5.22;;;21.00;36.80;;;;;;5022737;28;20407;-53
2021/11/17 05:48:21;;;;;;;6.40;4.72;;;21.00;36.80;;;;;;5022339;28;20132;-54
2021/11/17 05:51:03;;;;;;;6.50;5.00;;;21.00;36.80;;;;;;5020430;28;20037;-55
2021/11/17 05:53:42;;;;;;;5.70;4.65;;;21.10;36.90;;;;;;5020451;28;20441;-57
2021/11/17 05:56:32;;;;;;;6.43;4.43;;;21.10;36.90;;;;;;5024873;28;20077;-56
2021/11/17 05:59:10;;;;;;;6.65;4.82;;;21.00;36.90;;;;;;5021169;28;20487;-59
2021/11/17 06:01:48;;;;;;;6.78;5.05;;;21.00;36.80;;;;;;5021554;28;20368;-54
2021/11/17 06:04:14;;;;;;;6.75;4.90;;;21.00;36.80;;;;;;5022516;28;20033;-56
2021/11/17 06:06:39;;;;;;;7.18;5.07;;;21.00;36.80;;;;;;5020633;28;20428;-54
2021/11/17 06:09:05;;;;;;;6.25;4.63;;;21.00;36.90;;;;;;5019953;28;20025;-53
2021/11/17 06:11:59;;;;;;;6.53;5.43;;;21.00;36.90;;;;;;5022143;28;20041;-57
2021/11/17 06:14:29;;;;;;;7.28;5.72;;;21.00;36.90;;;;;;5017982;28;20045;-54
2021/11/17 06:16:59;;;;;;;7.00;5.00;;;21.00;36.90;;;;;;5020144;28;20022;-57
2021/11/17 06:19:28;;;;;;;6.15;4.97;;;21.00;36.90;;;;;;5022071;28;20405;-57
2021/11/17 06:21:55;;;;;;;5.60;4.25;;;21.00;36.90;;;;;;5023754;28;20364;-54
2021/11/17 06:24:23;;;;;;;5.85;4.32;;;21.00;37.00;;;;;;5021045;28;20044;-54
2021/11/17 06:26:50;;;;;;;6.80;4.75;;;21.00;36.90;;;;;;5022429;28;20029;-53
2021/11/17 06:29:20;;;;;;;7.18;5.20;;;21.00;36.90;;;;;;5022850;28;20029;-54
2021/11/17 06:31:47;;;;;;;7.28;5.00;;;21.00;36.90;;;;;;5022138;28;20037;-55
2021/11/17 06:34:24;;;;;;;5.38;4.28;;;21.00;37.00;;;;;;5021854;28;20460;-53
2021/11/17 06:36:50;;;;;;;6.40;4.82;;;21.00;37.00;;;;;;5023547;28;20349;-51
2021/11/17 06:39:16;;;;;;;5.90;4.28;;;21.00;37.00;;;;;;5025797;28;20029;-48
2021/11/17 06:41:42;;;;;;;6.82;5.53;;;21.00;37.00;;;;;;5022729;28;20026;-56
2021/11/17 06:44:08;;;;;;;5.88;4.78;;;21.00;37.00;;;;;;5025211;28;20038;-58
2021/11/17 06:46:33;;;;;;;6.80;4.72;;;21.00;37.00;;;;;;5022249;28;20056;-53
2021/11/17 06:48:59;;;;;;;6.18;4.97;;;21.00;37.00;;;;;;5021761;28;20026;-57
2021/11/17 06:51:25;;;;;;;6.85;4.88;;;21.00;37.10;;;;;;5020669;28;20377;-55
2021/11/17 06:53:51;;;;;;;6.28;4.93;;;21.00;37.10;;;;;;5024645;28;20117;-55
2021/11/17 06:56:18;;;;;;;5.68;4.38;;;21.00;37.10;;;;;;5026892;28;20058;-55
2021/11/17 06:58:47;;;;;;;6.38;4.78;;;21.00;37.10;;;;;;5028631;28;20412;-57
2021/11/17 07:01:16;;;;;;;6.78;4.57;;;21.00;37.10;;;;;;5034450;28;20091;-58
2021/11/17 07:03:42;;;;;;;6.38;4.53;;;21.00;37.10;;;;;;5032460;28;20033;-58
2021/11/17 07:06:08;;;;;;;7.03;4.57;;;21.00;37.20;;;;;;5024724;28;20040;-59
2021/11/17 07:08:34;;;;;;;7.45;5.18;;;21.00;37.20;;;;;;5023617;28;20033;-57
2021/11/17 07:11:00;;;;;;;6.43;4.78;;;21.00;37.10;;;;;;5024530;28;20348;-58
2021/11/17 07:13:26;;;;;;;6.65;4.60;;;21.00;37.10;;;;;;5032721;28;20037;-59
2021/11/17 07:15:52;;;;;;;6.05;4.47;;;21.00;37.10;;;;;;5022209;28;20045;-57
2021/11/17 07:18:18;;;;;;;6.53;4.70;;;21.00;37.10;;;;;;5026351;28;20200;-55
2021/11/17 07:20:46;;;;;;;8.23;4.85;;;21.00;37.20;;;;;;5022705;28;20033;-59
2021/11/17 07:23:17;;;;;;;6.63;5.00;;;21.00;37.20;;;;;;5022487;28;20481;-58
2021/11/17 07:25:43;;;;;;;5.80;4.22;;;21.00;37.20;;;;;;5019476;28;20042;-53
2021/11/17 07:28:08;;;;;;;7.20;5.20;;;21.00;37.20;;;;;;5017912;28;20409;-60
2021/11/17 07:30:38;;;;;;;7.85;5.13;;;21.00;37.20;;;;;;5019052;28;20386;-58
2021/11/17 07:33:04;;;;;;;6.43;4.63;;;21.00;37.20;;;;;;5021647;28;20445;-59
2021/11/17 07:35:32;;;;;;;7.72;5.63;;;21.00;37.20;;;;;;5018929;28;20434;-58
2021/11/17 07:38:01;;;;;;;7.22;5.40;;;21.00;37.30;;;;;;5019107;28;20068;-57
2021/11/17 07:40:35;;;;;;;6.97;5.03;;;21.00;37.30;;;;;;5024227;28;20441;-54
2021/11/17 07:43:02;;;;;;;11.45;5.78;;;20.90;37.30;;;;;;5028646;28;20033;-58
2021/11/17 07:45:28;;;;;;;9.88;5.68;;;21.00;37.40;;;;;;5026942;28;20132;-58
2021/11/17 07:47:54;;;;;;;7.90;5.18;;;21.00;37.50;;;;;;5027254;28;20373;-59
2021/11/17 07:50:20;;;;;;;7.22;5.00;;;21.00;37.60;;;;;;5025024;28;20400;-58
2021/11/17 07:52:46;;;;;;;8.25;5.22;;;21.00;37.50;;;;;;5020348;28;20026;-59
2021/11/17 07:55:15;;;;;;;8.68;5.13;;;21.10;37.70;;;;;;5021769;28;20144;-60
2021/11/17 07:57:43;;;;;;;8.05;5.55;;;21.10;37.70;;;;;;5036690;28;20029;-63
2021/11/17 08:00:22;;;;;;;7.85;4.95;;;21.20;37.80;;;;;;5028333;28;20419;-61
2021/11/17 08:02:49;;;;;;;7.72;5.45;;;21.30;37.80;;;;;;5022163;28;20033;-57
2021/11/17 08:05:16;;;;;;;9.32;5.25;;;21.40;37.80;;;;;;5024833;28;20052;-58
2021/11/17 08:07:43;;;;;;;7.93;6.13;;;21.50;37.70;;;;;;5024780;28;20025;-57
2021/11/17 08:10:13;;;;;;;7.30;4.70;;;21.60;37.60;;;;;;5023983;28;20041;-58
2021/11/17 08:12:41;;;;;;;7.93;5.45;;;21.70;37.40;;;;;;5024905;28;20030;-57
2021/11/17 08:15:12;;;;;;;7.60;4.63;;;21.80;37.40;;;;;;5017703;28;20453;-58
2021/11/17 08:17:39;;;;;;;7.40;4.95;;;22.00;37.30;;;;;;5021373;28;20058;-56
2021/11/17 08:20:14;;;;;;;7.32;5.05;;;22.10;37.20;;;;;;5026293;28;20033;-58
2021/11/17 08:22:41;;;;;;;7.80;5.32;;;22.10;37.10;;;;;;5023522;28;20107;-57
2021/11/17 08:25:08;;;;;;;7.95;4.95;;;22.20;37.00;;;;;;5021935;28;20041;-58
2021/11/17 08:27:34;;;;;;;8.73;5.47;;;22.30;36.90;;;;;;5023514;28;20723;-61
2021/11/17 08:30:00;;;;;;;8.82;5.43;;;22.40;36.90;;;;;;5023784;28;20560;-61
2021/11/17 08:32:26;;;;;;;8.32;5.50;;;22.50;36.80;;;;;;5022122;28;20104;-61
2021/11/17 08:34:52;;;;;;;8.10;5.45;;;22.50;36.70;;;;;;5026276;28;20722;-60
2021/11/17 08:37:19;;;;;;;7.85;5.43;;;22.60;36.70;;;;;;5024198;28;20457;-60
2021/11/17 08:39:47;;;;;;;8.13;5.22;;;22.60;36.60;;;;;;5025129;28;20052;-62
2021/11/17 08:42:15;;;;;;;8.20;5.20;;;22.70;36.60;;;;;;5025837;28;20029;-60
2021/11/17 08:44:43;;;;;;;9.82;5.72;;;22.70;36.50;;;;;;5020289;28;20045;-60
2021/11/17 08:47:11;;;;;;;6.85;4.90;;;22.80;36.50;;;;;;5023512;28;20095;-61
2021/11/17 08:49:37;;;;;;;7.47;5.07;;;22.80;36.40;;;;;;5024804;28;20132;-60
2021/11/17 08:52:05;;;;;;;11.68;5.78;;;22.90;36.40;;;;;;5015762;28;20053;-60
2021/11/17 08:54:31;;;;;;;9.40;5.50;;;23.00;36.30;;;;;;5033933;28;20037;-60
2021/11/17 08:56:58;;;;;;;8.85;5.38;;;23.00;36.20;;;;;;5025918;28;20171;-60
2021/11/17 08:59:25;;;;;;;8.25;5.38;;;23.10;36.20;;;;;;5021312;28;20021;-60
2021/11/17 09:01:54;;;;;;;7.55;5.15;;;23.10;36.20;;;;;;5034552;28;20108;-60
2021/11/17 09:04:19;;;;;;;8.20;5.70;;;23.20;36.20;;;;;;5036594;28;20116;-60
2021/11/17 09:06:45;;;;;;;9.05;4.93;;;23.30;36.10;;;;;;5019732;28;20116;-60
2021/11/17 09:09:11;;;;;;;9.77;5.35;;;23.30;36.10;;;;;;5016576;28;20026;-60
2021/11/17 09:11:40;;;;;;;9.05;5.50;;;23.30;36.00;;;;;;5020002;28;20124;-60
2021/11/17 09:14:07;;;;;;;10.00;5.57;;;23.40;36.00;;;;;;5036388;28;20457;-60
2021/11/17 09:16:35;;;;;;;8.55;6.10;;;23.40;35.90;;;;;;5034406;28;20053;-60
2021/11/17 09:19:03;;;;;;;9.55;6.07;;;23.40;35.90;;;;;;5023831;28;20037;-59
2021/11/17 09:21:33;;;;;;;7.47;5.60;;;23.50;35.90;;;;;;5028598;28;20037;-60
2021/11/17 09:24:04;;;;;;;9.38;6.07;;;23.60;35.90;;;;;;5036248;28;20129;-60
2021/11/17 09:26:30;;;;;;;8.65;5.88;;;23.60;35.90;;;;;;5026485;28;20045;-60
2021/11/17 09:28:58;;;;;;;8.90;5.47;;;23.60;35.80;;;;;;5017281;28;20072;-62
2021/11/17 09:31:25;;;;;;;8.73;5.95;;;23.60;35.80;;;;;;5018979;28;20041;-61
2021/11/17 09:33:52;;;;;;;9.48;6.25;;;23.60;35.80;;;;;;5016409;28;20038;-58
2021/11/17 09:36:21;;;;;;;8.57;5.57;;;23.60;35.80;;;;;;5016451;28;20038;-59
2021/11/17 09:38:50;;;;;;;8.23;5.57;;;23.60;35.80;;;;;;5030920;28;20037;-59
2021/11/17 09:41:20;;;;;;;8.73;6.05;;;23.70;35.90;;;;;;5025883;28;20032;-60
2021/11/17 09:43:54;;;;;;;7.82;5.32;;;23.70;35.80;;;;;;5020290;28;20049;-61
2021/11/17 09:46:25;;;;;;;8.48;5.72;;;23.70;35.90;;;;;;5018491;28;20048;-60
2021/11/17 09:48:55;;;;;;;8.85;6.07;;;23.60;35.80;;;;;;5023433;28;20330;-58
2021/11/17 09:51:29;;;;;;;9.55;6.28;;;23.70;35.90;;;;;;5017011;28;20346;-61
2021/11/17 09:54:13;;;;;;;8.55;6.20;;;23.60;35.80;;;;;;5014927;28;20439;-60
2021/11/17 09:56:47;;;;;;;8.85;5.85;;;23.70;35.90;;;;;;5020941;28;20057;-61
2021/11/17 09:59:20;;;;;;;8.30;6.15;;;23.60;36.00;;;;;;5026040;28;20030;-59
2021/11/17 10:02:09;;;;;;;8.85;6.25;;;23.60;36.00;;;;;;5029353;28;20053;-56
2021/11/17 10:04:46;;;;;;;9.65;6.15;;;23.50;36.00;;;;;;5030984;28;20110;-59
2021/11/17 10:13:02;;;;;;;8.82;6.68;;;23.40;36.30;;;;;;5015847;28;20091;-58
2021/11/17 10:15:34;;;;;;;7.32;5.57;;;23.40;36.40;;;;;;5015536;28;20038;-59
2021/11/17 10:18:21;;;;;;;7.90;5.93;;;23.40;36.50;;;;;;5020694;28;20036;-58
2021/11/17 10:20:47;;;;;;;8.98;5.90;;;23.30;36.60;;;;;;5033223;28;20048;-56
2021/11/17 10:23:29;;;;;;;8.90;6.07;;;23.20;36.60;;;;;;5015164;28;20029;-58
2021/11/17 10:26:04;;;;;;;9.50;6.38;;;23.20;36.80;;;;;;5014352;28;20041;-58
2021/11/17 10:28:42;;;;;;;9.27;6.18;;;23.10;36.90;;;;;;5015488;28;20045;-60
2021/11/17 10:31:13;;;;;;;10.25;6.85;;;23.00;37.00;;;;;;5014618;28;20030;-59
2021/11/17 10:34:22;;;;;;;8.80;6.60;;;22.90;37.10;;;;;;5015243;28;20180;-58
2021/11/17 10:37:05;;;;;;;10.40;6.93;;;22.90;37.20;;;;;;5015550;28;20452;-58
2021/11/17 10:39:39;;;;;;;10.85;7.38;;;22.80;37.40;;;;;;5014059;28;20030;-57
2021/11/17 10:42:07;;;;;;;10.40;7.20;;;22.70;37.50;;;;;;5014737;28;20022;-60
2021/11/17 10:44:46;;;;;;;9.68;6.80;;;22.60;37.60;;;;;;5014686;28;20393;-57
2021/11/17 10:47:21;;;;;;;11.82;7.10;;;22.60;37.70;;;;;;5016945;28;20087;-60
2021/11/17 10:50:04;;;;;;;12.07;7.80;;;22.60;37.80;;;;;;5015001;28;20026;-60
2021/11/17 10:52:47;;;;;;;12.40;8.35;;;22.50;37.90;;;;;;5017536;28;20464;-60
2021/11/17 10:55:34;;;;;;;12.52;7.82;;;22.50;38.00;;;;;;5013462;28;20054;-60
2021/11/17 10:58:07;;;;;;;12.07;7.85;;;22.40;38.10;;;;;;5015173;28;20417;-60
2021/11/17 11:00:43;;;;;;;10.88;7.75;;;22.40;38.30;;;;;;5025110;28;20034;-59
2021/11/17 11:03:12;;;;;;;12.43;8.43;;;22.30;38.30;;;;;;5034542;28;20399;-57
2021/11/17 11:05:59;;;;;;;12.88;8.77;;;22.30;38.50;;;;;;5034345;28;20338;-58
2021/11/17 11:08:47;;;;;;;13.13;8.70;;;22.30;38.60;;;;;;5030556;28;20037;-60
2021/11/17 11:11:13;;;;;;;12.52;8.63;;;22.30;38.70;;;;;;5028117;28;20356;-60
2021/11/17 11:13:52;;;;;;;14.25;9.32;;;22.20;38.80;;;;;;5034483;28;20112;-60
2021/11/17 11:16:46;;;;;;;13.50;8.63;;;22.20;38.80;;;;;;5038651;28;20057;-59
2021/11/17 11:19:14;;;;;;;14.68;9.43;;;22.20;38.90;;;;;;5030177;28;20040;-59
2021/11/17 11:21:46;;;;;;;12.60;8.77;;;22.20;39.00;;;;;;5030578;28;20121;-59
2021/11/17 11:24:29;;;;;;;13.50;8.93;;;22.20;39.10;;;;;;5030324;28;20037;-56
2021/11/17 11:26:58;;;;;;;14.90;9.82;;;22.20;39.20;;;;;;5020977;28;20033;-59
2021/11/17 11:29:34;;;;;;;14.88;9.82;;;22.20;39.50;;;;;;5021426;28;20065;-59
2021/11/17 11:32:02;;;;;;;13.63;9.32;;;22.20;39.70;;;;;;5024922;28;20127;-58
2021/11/17 11:34:30;;;;;;;13.07;8.73;;;22.10;39.70;;;;;;5023031;28;20311;-60
2021/11/17 11:36:57;;;;;;;13.95;9.18;;;22.10;39.90;;;;;;5018361;28;20034;-58
2021/11/17 11:39:30;;;;;;;13.93;9.15;;;22.10;39.90;;;;;;5025722;28;20391;-60
2021/11/17 11:42:17;;;;;;;13.00;9.75;;;22.10;39.90;;;;;;5018503;28;20438;-58
2021/11/17 11:44:48;;;;;;;13.93;9.43;;;22.10;40.00;;;;;;5034619;28;20041;-59
2021/11/17 11:47:13;;;;;;;13.93;9.20;;;22.10;40.20;;;;;;5036357;28;20025;-57
2021/11/17 11:49:56;;;;;;;12.48;8.40;;;22.10;40.10;;;;;;5017448;28;20060;-59
2021/11/17 11:52:30;;;;;;;13.80;8.88;;;22.10;40.10;;;;;;5018119;28;20022;-60
2021/11/17 11:54:56;;;;;;;13.77;9.27;;;22.20;40.20;;;;;;5031348;28;20066;-61
2021/11/17 11:57:34;;;;;;;14.45;10.07;;;22.10;40.20;;;;;;5022319;28;20128;-59
2021/11/17 12:00:06;;;;;;;12.77;8.75;;;22.20;40.30;;;;;;5027928;28;20049;-60
2021/11/17 12:02:45;;;;;;;13.63;8.77;;;22.10;40.30;;;;;;5037440;28;20088;-60
2021/11/17 12:05:21;;;;;;;12.38;8.60;;;22.20;40.40;;;;;;5019183;28;20057;-58
2021/11/17 12:07:53;;;;;;;13.40;9.27;;;22.10;40.50;;;;;;5019060;28;20033;-59
2021/11/17 12:10:18;;;;;;;12.30;8.38;;;22.10;40.60;;;;;;5017926;28;20167;-58
2021/11/17 12:12:44;;;;;;;11.98;8.07;;;22.10;40.70;;;;;;5017941;28;20080;-58
2021/11/17 12:15:37;;;;;;;10.35;7.63;;;22.20;40.80;;;;;;5017061;28;20429;-56
2021/11/17 12:18:19;;;;;;;12.05;7.85;;;22.10;40.80;;;;;;5016688;28;20041;-57
2021/11/17 12:20:58;;;;;;;10.88;7.72;;;22.10;40.80;;;;;;5018066;28;20033;-59
2021/11/17 12:23:29;;;;;;;10.88;7.43;;;22.20;40.90;;;;;;5017567;28;20045;-60
2021/11/17 12:26:07;;;;;;;10.15;7.00;;;22.10;40.90;;;;;;5017584;28;20071;-60
2021/11/17 12:28:42;;;;;;;12.38;8.57;;;22.20;41.00;;;;;;5017788;28;20113;-59
2021/11/17 12:31:42;;;;;;;10.45;7.38;;;22.20;41.10;;;;;;5028121;28;20095;-59
2021/11/17 12:34:08;;;;;;;10.20;7.00;;;22.20;41.10;;;;;;5037040;28;20030;-60
2021/11/17 12:36:46;;;;;;;9.38;7.47;;;22.10;41.10;;;;;;5037134;28;20096;-60
2021/11/17 12:39:17;;;;;;;10.07;7.07;;;22.10;41.20;;;;;;5036431;28;20057;-58
2021/11/17 12:41:44;;;;;;;9.05;6.93;;;22.10;41.10;;;;;;5036816;28;20405;-61
2021/11/17 12:44:32;;;;;;;7.28;5.78;;;22.20;41.10;;;;;;5036958;28;20040;-60
2021/11/17 12:47:10;;;;;;;8.65;5.93;;;22.20;40.90;;;;;;5036984;28;20045;-59
2021/11/17 12:49:41;;;;;;;7.78;5.75;;;22.30;40.80;;;;;;5026243;28;20062;-59
2021/11/17 12:52:13;;;;;;;7.47;6.10;;;22.30;40.70;;;;;;5016877;28;20038;-59
2021/11/17 12:55:05;;;;;;;7.55;5.53;;;22.40;40.70;;;;;;5015898;28;20075;-58
2021/11/17 12:57:39;;;;;;;7.63;6.05;;;22.40;40.60;;;;;;5017288;28;20048;-57
2021/11/17 13:00:14;;;;;;;7.70;5.43;;;22.40;40.60;;;;;;5023808;28;20034;-59
2021/11/17 13:02:54;;;;;;;7.07;5.38;;;22.50;40.50;;;;;;5016425;28;20061;-59
2021/11/17 13:05:36;;;;;;;7.32;5.00;;;22.50;40.50;;;;;;5016811;28;20053;-58
2021/11/17 13:08:02;;;;;;;8.40;5.30;;;22.50;40.50;;;;;;5016130;28;20472;-59
2021/11/17 13:10:57;;;;;;;6.10;5.00;;;22.50;40.50;;;;;;5033638;28;20029;-56
2021/11/17 13:13:27;;;;;;;6.68;4.72;;;22.50;40.50;;;;;;5028564;28;20038;-58
2021/11/17 13:15:53;;;;;;;6.28;4.63;;;22.50;40.50;;;;;;5029635;28;20037;-60
2021/11/17 13:18:45;;;;;;;6.85;4.95;;;22.50;40.50;;;;;;5016960;28;20087;-58
2021/11/17 13:21:33;;;;;;;6.55;4.65;;;22.50;40.40;;;;;;5016387;28;20033;-59
2021/11/17 13:24:17;;;;;;;6.43;4.80;;;22.50;40.50;;;;;;5006224;28;20055;-56
2021/11/17 13:26:44;;;;;;;6.43;4.47;;;22.50;40.50;;;;;;5016542;28;20179;-59
2021/11/17 13:29:47;;;;;;;6.70;4.93;;;22.50;40.50;;;;;;5016355;28;20026;-58
2021/11/17 13:32:13;;;;;;;7.05;4.75;;;22.50;40.40;;;;;;4955911;28;20113;-57
2021/11/17 13:34:55;;;;;;;6.78;4.75;;;22.50;40.50;;;;;;5009968;28;20041;-58
2021/11/17 13:37:39;;;;;;;7.28;4.88;;;22.60;40.70;;;;;;5029510;28;20029;-54
2021/11/17 13:40:05;;;;;;;7.10;5.07;;;22.60;40.60;;;;;;5026064;28;20025;-61
2021/11/17 13:42:31;;;;;;;6.75;5.15;;;22.50;40.60;;;;;;5022786;28;20036;-56
2021/11/17 13:44:59;;;;;;;5.88;4.45;;;22.50;40.60;;;;;;5016196;28;20125;-56
2021/11/17 13:47:28;;;;;;;7.22;4.82;;;22.50;40.60;;;;;;5016298;28;20116;-59
2021/11/17 13:49:56;;;;;;;6.07;4.28;;;22.50;40.60;;;;;;5016130;28;20345;-60
2021/11/17 13:52:35;;;;;;;10.18;4.80;;;22.50;40.70;;;;;;5018095;28;20117;-60
2021/11/17 13:55:04;;;;;;;6.10;4.45;;;22.50;41.40;;;;;;5016192;28;20065;-58
2021/11/17 13:57:30;;;;;;;6.28;4.32;;;22.50;40.80;;;;;;5017169;28;20029;-60
2021/11/17 13:59:56;;;;;;;6.05;4.38;;;22.50;40.80;;;;;;5017953;28;20372;-59
2021/11/17 14:02:22;;;;;;;5.63;4.05;;;22.50;40.80;;;;;;5015147;28;20380;-60
2021/11/17 14:04:49;;;;;;;5.75;4.22;;;22.60;41.50;;;;;;5018062;28;20033;-61
2021/11/17 14:07:17;;;;;;;5.82;4.40;;;22.50;40.80;;;;;;5029799;28;20034;-60
2021/11/17 14:09:43;;;;;;;7.18;4.75;;;22.50;40.90;;;;;;5020661;28;20087;-51
2021/11/17 14:12:09;;;;;;;5.63;4.07;;;22.50;40.90;;;;;;5029007;28;20030;-54
2021/11/17 14:14:36;;;;;;;6.25;4.18;;;22.60;41.00;;;;;;5015721;28;20029;-54
2021/11/17 14:17:04;;;;;;;5.93;4.10;;;22.50;41.10;;;;;;5018641;28;20368;-54
2021/11/17 14:19:30;;;;;;;6.80;4.30;;;22.50;41.10;;;;;;5021762;28;20038;-52
2021/11/17 14:21:57;;;;;;;6.97;3.72;;;22.50;41.30;;;;;;5026718;28;20085;-54
2021/11/17 14:24:24;;;;;;;5.40;3.50;;;22.40;41.30;;;;;;5024637;28;20038;-52
2021/11/17 14:26:52;;;;;;;5.30;3.40;;;22.40;41.40;;;;;;5025575;28;20037;-51
2021/11/17 14:29:32;;;;;;;5.97;3.72;;;22.40;41.30;;;;;;5025670;28;20029;-55
2021/11/17 14:32:09;;;;;;;4.40;2.80;;;22.30;41.20;;;;;;5019848;28;20060;-54
2021/11/17 14:34:36;;;;;;;4.57;3.03;;;22.30;41.30;;;;;;5019665;28;20029;-54
2021/11/17 14:37:06;;;;;;;5.20;3.00;;;22.20;41.20;;;;;;5023506;28;20148;-55
2021/11/17 14:39:36;;;;;;;5.75;2.70;;;22.20;41.20;;;;;;5025213;28;20119;-52
2021/11/17 14:42:03;;;;;;;5.20;2.85;;;22.20;41.20;;;;;;5029676;28;20029;-51
2021/11/17 14:44:29;;;;;;;6.20;2.90;;;22.10;41.10;;;;;;5031778;28;20049;-54
2021/11/17 14:46:55;;;;;;;5.63;2.90;;;22.10;41.10;;;;;;5017980;28;20038;-51
2021/11/17 14:49:21;;;;;;;4.53;2.80;;;22.10;41.10;;;;;;5020726;28;20030;-54
2021/11/17 14:51:48;;;;;;;4.72;2.97;;;22.10;41.10;;;;;;5025355;28;20041;-54
2021/11/17 14:54:13;;;;;;;6.30;2.97;;;22.10;41.10;;;;;;5015021;28;20037;-52
2021/11/17 14:56:40;;;;;;;4.93;2.20;;;22.10;41.00;;;;;;5025213;28;20045;-53
2021/11/17 14:59:07;;;;;;;5.18;2.30;;;22.10;41.00;;;;;;5015608;28;20129;-54
2021/11/17 15:01:36;;;;;;;5.72;2.92;;;22.10;41.00;;;;;;5018119;28;20057;-51
2021/11/17 15:04:03;;;;;;;4.20;2.20;;;22.10;40.90;;;;;;5027171;28;20354;-54
2021/11/17 15:06:30;;;;;;;4.10;2.42;;;22.10;40.80;;;;;;5031254;28;20107;-51
2021/11/17 15:08:56;;;;;;;4.22;2.03;;;22.10;40.80;;;;;;5024073;28;20026;-53
2021/11/17 15:11:24;;;;;;;6.70;2.60;;;22.10;40.70;;;;;;5015155;28;20208;-50
2021/11/17 15:13:51;;;;;;;5.18;2.55;;;22.10;40.70;;;;;;5014103;28;20123;-53
2021/11/17 15:16:18;;;;;;;4.55;2.35;;;22.10;40.60;;;;;;5015765;28;20034;-54
2021/11/17 15:18:46;;;;;;;5.15;2.33;;;22.10;40.50;;;;;;5031817;28;20036;-53
2021/11/17 15:21:18;;;;;;;4.72;2.05;;;22.10;40.40;;;;;;5023228;28;20506;-53
2021/11/17 15:23:45;;;;;;;5.68;2.55;;;22.10;40.40;;;;;;5014924;28;20463;-50
2021/11/17 15:26:13;;;;;;;5.13;2.08;;;22.10;40.30;;;;;;5027677;28;20041;-51
2021/11/17 15:28:43;;;;;;;5.63;2.38;;;22.10;40.30;;;;;;5015231;28;20045;-53
2021/11/17 15:31:12;;;;;;;4.78;2.20;;;22.10;40.30;;;;;;5031742;28;20034;-51
2021/11/17 15:33:39;;;;;;;4.28;2.22;;;22.10;40.20;;;;;;5032359;28;20082;-50
2021/11/17 15:36:07;;;;;;;4.13;2.00;;;22.10;40.10;;;;;;5033600;28;20033;-56
2021/11/17 15:38:34;;;;;;;5.13;2.10;;;22.10;40.10;;;;;;5021502;28;20469;-52
2021/11/17 15:41:02;;;;;;;5.65;2.40;;;22.10;40.00;;;;;;5016654;28;20026;-53
2021/11/17 15:43:28;;;;;;;4.63;2.13;;;22.10;40.00;;;;;;5015228;28;20038;-53
2021/11/17 15:45:55;;;;;;;4.85;2.03;;;22.10;40.00;;;;;;5028583;28;20097;-53
2021/11/17 15:48:23;;;;;;;4.40;2.25;;;22.10;40.00;;;;;;5030915;28;20031;-48
2021/11/17 15:50:57;;;;;;;4.20;2.05;;;22.10;39.90;;;;;;5031183;28;20044;-51
2021/11/17 15:53:23;;;;;;;3.60;2.20;;;22.10;39.90;;;;;;5031246;28;20107;-52
2021/11/17 15:55:50;;;;;;;5.22;2.03;;;22.10;40.00;;;;;;5015385;28;20068;-52
2021/11/17 15:58:18;;;;;;;5.63;2.25;;;22.10;40.00;;;;;;5019981;28;20048;-49